sensor_id;sensor_type;location;lat;lon;timestamp;P1;durP1;ratioP1;P2;durP2;ratioP2
59986;SDS011;46181;51.498;5.392;2023-04-06T00:02:58;13.916;;;7.836;;
59986;SDS011;46181;51.498;5.392;2023-04-06T00:07:28;16.704;;;8.108;;
59986;SDS011;46181;51.498;5.392;2023-04-06T00:11:58;13.668;;;7.472001;;
59986;SDS011;46181;51.498;5.392;2023-04-06T00:16:28;14.544;;;7.835999;;
59986;SDS011;46181;51.498;5.392;2023-04-06T00:20:58;12.796;;;7.480001;;
59986;SDS011;46181;51.498;5.392;2023-04-06T00:25:28;12.444;;;7.572;;
59986;SDS011;46181;51.498;5.392;2023-04-06T00:29:58;14.388;;;7.680001;;
59986;SDS011;46181;51.498;5.392;2023-04-06T00:34:28;15.824;;;8.068;;
59986;SDS011;46181;51.498;5.392;2023-04-06T00:38:58;14.036;;;7.072;;
59986;SDS011;46181;51.498;5.392;2023-04-06T00:43:28;14.044;;;7.264001;;
59986;SDS011;46181;51.498;5.392;2023-04-06T00:47:58;12.44;;;7.087999;;
59986;SDS011;46181;51.498;5.392;2023-04-06T00:52:28;12.94;;;7.296;;
59986;SDS011;46181;51.498;5.392;2023-04-06T00:56:58;14.176;;;7.328001;;
59986;SDS011;46181;51.498;5.392;2023-04-06T01:01:29;13.588;;;7.255999;;
59986;SDS011;46181;51.498;5.392;2023-04-06T01:05:58;13.28;;;7.323999;;
59986;SDS011;46181;51.498;5.392;2023-04-06T01:10:28;13.28;;;7.448;;
59986;SDS011;46181;51.498;5.392;2023-04-06T01:14:58;12.336;;;7.671999;;
59986;SDS011;46181;51.498;5.392;2023-04-06T01:19:28;15.12;;;8.139998;;
59986;SDS011;46181;51.498;5.392;2023-04-06T01:23:58;14.556;;;8.419999;;
59986;SDS011;46181;51.498;5.392;2023-04-06T01:28:28;15.944;;;8.1;;
59986;SDS011;46181;51.498;5.392;2023-04-06T01:32:58;14.764;;;8.460001;;
59986;SDS011;46181;51.498;5.392;2023-04-06T01:37:28;14.556;;;8.488;;
59986;SDS011;46181;51.498;5.392;2023-04-06T01:41:58;12.752;;;8.132;;
59986;SDS011;46181;51.498;5.392;2023-04-06T01:46:28;16.016;;;8.832;;
59986;SDS011;46181;51.498;5.392;2023-04-06T01:50:58;16.6;;;9.084001;;
59986;SDS011;46181;51.498;5.392;2023-04-06T01:55:28;15.76;;;9.236;;
59986;SDS011;46181;51.498;5.392;2023-04-06T01:59:58;17.924;;;9.468001;;
59986;SDS011;46181;51.498;5.392;2023-04-06T02:04:28;16.748;;;9.544001;;
59986;SDS011;46181;51.498;5.392;2023-04-06T02:08:58;17.144;;;9.264;;
59986;SDS011;46181;51.498;5.392;2023-04-06T02:13:28;15.956;;;8.704;;
59986;SDS011;46181;51.498;5.392;2023-04-06T02:17:58;18.34;;;9.608;;
59986;SDS011;46181;51.498;5.392;2023-04-06T02:22:28;18.368;;;10.336;;
59986;SDS011;46181;51.498;5.392;2023-04-06T02:26:58;18.752;;;10.348;;
59986;SDS011;46181;51.498;5.392;2023-04-06T02:31:28;18.964;;;10.324;;
59986;SDS011;46181;51.498;5.392;2023-04-06T02:35:58;18.28;;;10.004;;
59986;SDS011;46181;51.498;5.392;2023-04-06T02:40:28;18.848;;;10.424;;
59986;SDS011;46181;51.498;5.392;2023-04-06T02:44:58;18.768;;;10.276;;
59986;SDS011;46181;51.498;5.392;2023-04-06T02:49:28;18.52;;;10.168;;
59986;SDS011;46181;51.498;5.392;2023-04-06T02:53:58;16.988;;;9.648;;
59986;SDS011;46181;51.498;5.392;2023-04-06T02:58:28;19.116;;;10.456;;
59986;SDS011;46181;51.498;5.392;2023-04-06T03:02:58;16.628;;;10.328;;
59986;SDS011;46181;51.498;5.392;2023-04-06T03:07:28;18.404;;;10.716;;
59986;SDS011;46181;51.498;5.392;2023-04-06T03:11:58;18.972;;;10.92;;
59986;SDS011;46181;51.498;5.392;2023-04-06T03:16:28;18.792;;;10.568;;
59986;SDS011;46181;51.498;5.392;2023-04-06T03:20:58;19.776;;;11.468;;
59986;SDS011;46181;51.498;5.392;2023-04-06T03:25:28;20.332;;;11.62;;
59986;SDS011;46181;51.498;5.392;2023-04-06T03:29:58;17.644;;;9.799999;;
59986;SDS011;46181;51.498;5.392;2023-04-06T03:34:28;18.86;;;11.172;;
59986;SDS011;46181;51.498;5.392;2023-04-06T03:38:58;20.068;;;10.756;;
59986;SDS011;46181;51.498;5.392;2023-04-06T03:43:28;19.852;;;11.192;;
59986;SDS011;46181;51.498;5.392;2023-04-06T03:47:58;19.684;;;10.836;;
59986;SDS011;46181;51.498;5.392;2023-04-06T03:52:28;18.476;;;10.888;;
59986;SDS011;46181;51.498;5.392;2023-04-06T03:56:58;21.7;;;10.744;;
59986;SDS011;46181;51.498;5.392;2023-04-06T04:01:28;19.972;;;10.884;;
59986;SDS011;46181;51.498;5.392;2023-04-06T04:05:58;19.004;;;10.488;;
59986;SDS011;46181;51.498;5.392;2023-04-06T04:10:28;22.112;;;11.228;;
59986;SDS011;46181;51.498;5.392;2023-04-06T04:14:58;17.772;;;10.74;;
59986;SDS011;46181;51.498;5.392;2023-04-06T04:19:28;18.448;;;10.68;;
59986;SDS011;46181;51.498;5.392;2023-04-06T04:23:58;20.2;;;11.208;;
59986;SDS011;46181;51.498;5.392;2023-04-06T04:28:28;18.2;;;10.616;;
59986;SDS011;46181;51.498;5.392;2023-04-06T04:32:58;17.68;;;10.7;;
59986;SDS011;46181;51.498;5.392;2023-04-06T04:37:28;16.648;;;10.436;;
59986;SDS011;46181;51.498;5.392;2023-04-06T04:41:58;19.556;;;10.56;;
59986;SDS011;46181;51.498;5.392;2023-04-06T04:46:28;21.12;;;11.064;;
59986;SDS011;46181;51.498;5.392;2023-04-06T04:50:58;18.48;;;10.94;;
59986;SDS011;46181;51.498;5.392;2023-04-06T04:55:28;19.2;;;10.464;;
59986;SDS011;46181;51.498;5.392;2023-04-06T04:59:58;19.876;;;10.36;;
59986;SDS011;46181;51.498;5.392;2023-04-06T05:04:28;18.992;;;10.36;;
59986;SDS011;46181;51.498;5.392;2023-04-06T05:08:58;19.408;;;10.24;;
59986;SDS011;46181;51.498;5.392;2023-04-06T05:13:29;18.12;;;10.412;;
59986;SDS011;46181;51.498;5.392;2023-04-06T05:17:58;18.948;;;10.024;;
59986;SDS011;46181;51.498;5.392;2023-04-06T05:22:28;18.76;;;9.816002;;
59986;SDS011;46181;51.498;5.392;2023-04-06T05:26:58;18.548;;;9.724;;
59986;SDS011;46181;51.498;5.392;2023-04-06T05:31:28;18.568;;;10.036;;
59986;SDS011;46181;51.498;5.392;2023-04-06T05:35:58;19.912;;;11.08;;
59986;SDS011;46181;51.498;5.392;2023-04-06T05:40:28;19.928;;;10.76;;
59986;SDS011;46181;51.498;5.392;2023-04-06T05:44:59;20.5;;;10.72;;
59986;SDS011;46181;51.498;5.392;2023-04-06T05:49:28;23.624;;;10.44;;
59986;SDS011;46181;51.498;5.392;2023-04-06T05:53:58;18.936;;;10.52;;
59986;SDS011;46181;51.498;5.392;2023-04-06T05:58:28;21.584;;;10.804;;
59986;SDS011;46181;51.498;5.392;2023-04-06T06:02:58;17.872;;;10.42;;
59986;SDS011;46181;51.498;5.392;2023-04-06T06:07:28;18.652;;;10.356;;
59986;SDS011;46181;51.498;5.392;2023-04-06T06:11:58;18.9;;;10.276;;
59986;SDS011;46181;51.498;5.392;2023-04-06T06:16:28;18.872;;;10.404;;
59986;SDS011;46181;51.498;5.392;2023-04-06T06:20:58;17.556;;;9.811999;;
59986;SDS011;46181;51.498;5.392;2023-04-06T06:25:28;17.364;;;10.988;;
59986;SDS011;46181;51.498;5.392;2023-04-06T06:29:58;20.644;;;10.996;;
59986;SDS011;46181;51.498;5.392;2023-04-06T06:34:28;20.572;;;10.488;;
59986;SDS011;46181;51.498;5.392;2023-04-06T06:38:58;18.404;;;10.532;;
59986;SDS011;46181;51.498;5.392;2023-04-06T06:43:28;17.94;;;10.16;;
59986;SDS011;46181;51.498;5.392;2023-04-06T06:47:58;19.248;;;9.867999;;
59986;SDS011;46181;51.498;5.392;2023-04-06T06:52:28;19.148;;;9.948001;;
59986;SDS011;46181;51.498;5.392;2023-04-06T06:56:58;24.18;;;11.616;;
59986;SDS011;46181;51.498;5.392;2023-04-06T07:01:28;19.088;;;10.548;;
59986;SDS011;46181;51.498;5.392;2023-04-06T07:05:58;16.796;;;10.112;;
59986;SDS011;46181;51.498;5.392;2023-04-06T07:10:28;16.716;;;9.804001;;
59986;SDS011;46181;51.498;5.392;2023-04-06T07:14:58;19.272;;;10.648;;
59986;SDS011;46181;51.498;5.392;2023-04-06T07:19:28;18.768;;;10.508;;
59986;SDS011;46181;51.498;5.392;2023-04-06T07:23:58;20.76;;;11.004;;
59986;SDS011;46181;51.498;5.392;2023-04-06T07:28:28;18.072;;;10.476;;
59986;SDS011;46181;51.498;5.392;2023-04-06T07:32:58;19.596;;;10.428;;
59986;SDS011;46181;51.498;5.392;2023-04-06T07:37:28;18.408;;;10.596;;
59986;SDS011;46181;51.498;5.392;2023-04-06T07:41:58;17.632;;;10.748;;
59986;SDS011;46181;51.498;5.392;2023-04-06T07:46:28;19.812;;;9.752;;
59986;SDS011;46181;51.498;5.392;2023-04-06T07:51:04;20.136;;;10.2;;
59986;SDS011;46181;51.498;5.392;2023-04-06T07:55:28;18;;;10.704;;
59986;SDS011;46181;51.498;5.392;2023-04-06T07:59:58;20.072;;;9.811998;;
59986;SDS011;46181;51.498;5.392;2023-04-06T08:04:28;17.648;;;9.8;;
59986;SDS011;46181;51.498;5.392;2023-04-06T08:08:58;20.196;;;10.16;;
59986;SDS011;46181;51.498;5.392;2023-04-06T08:13:28;17.64;;;10.328;;
59986;SDS011;46181;51.498;5.392;2023-04-06T08:17:58;20.372;;;10.436;;
59986;SDS011;46181;51.498;5.392;2023-04-06T08:22:28;16.912;;;9.135999;;
59986;SDS011;46181;51.498;5.392;2023-04-06T08:26:58;18.284;;;9.883999;;
59986;SDS011;46181;51.498;5.392;2023-04-06T08:31:28;19.692;;;9.875999;;
59986;SDS011;46181;51.498;5.392;2023-04-06T08:35:58;18.6;;;9.948;;
59986;SDS011;46181;51.498;5.392;2023-04-06T08:40:28;18.492;;;9.759998;;
59986;SDS011;46181;51.498;5.392;2023-04-06T08:44:58;17.76;;;9.907998;;
59986;SDS011;46181;51.498;5.392;2023-04-06T08:49:28;17.848;;;9.868;;
59986;SDS011;46181;51.498;5.392;2023-04-06T08:53:58;18.736;;;10.584;;
59986;SDS011;46181;51.498;5.392;2023-04-06T08:58:28;17.2;;;9.7;;
59986;SDS011;46181;51.498;5.392;2023-04-06T09:02:58;18.776;;;10.472;;
59986;SDS011;46181;51.498;5.392;2023-04-06T09:07:28;15.88;;;9.959999;;
59986;SDS011;46181;51.498;5.392;2023-04-06T09:11:58;17.332;;;9.731998;;
59986;SDS011;46181;51.498;5.392;2023-04-06T09:16:28;19.168;;;10.388;;
59986;SDS011;46181;51.498;5.392;2023-04-06T09:21:01;18.78;;;10.728;;
59986;SDS011;46181;51.498;5.392;2023-04-06T09:25:28;20.58;;;10.608;;
59986;SDS011;46181;51.498;5.392;2023-04-06T09:30:02;19.748;;;10.956;;
59986;SDS011;46181;51.498;5.392;2023-04-06T09:34:28;18.396;;;10.152;;
59986;SDS011;46181;51.498;5.392;2023-04-06T09:38:59;18.968;;;10.188;;
59986;SDS011;46181;51.498;5.392;2023-04-06T09:43:28;17.972;;;10.54;;
59986;SDS011;46181;51.498;5.392;2023-04-06T09:47:58;16.936;;;9.267999;;
59986;SDS011;46181;51.498;5.392;2023-04-06T09:52:36;17.536;;;9.080001;;
59986;SDS011;46181;51.498;5.392;2023-04-06T09:57:00;15.356;;;8.135998;;
59986;SDS011;46181;51.498;5.392;2023-04-06T10:01:29;14.432;;;8.528001;;
59986;SDS011;46181;51.498;5.392;2023-04-06T10:05:59;13.28;;;7.292;;
59986;SDS011;46181;51.498;5.392;2023-04-06T10:10:28;15.732;;;8.544;;
59986;SDS011;46181;51.498;5.392;2023-04-06T10:14:58;15.28;;;8.308;;
59986;SDS011;46181;51.498;5.392;2023-04-06T10:19:30;13.948;;;8.135999;;
59986;SDS011;46181;51.498;5.392;2023-04-06T10:23:59;13.7;;;7.612001;;
59986;SDS011;46181;51.498;5.392;2023-04-06T10:28:30;13.836;;;7.460001;;
59986;SDS011;46181;51.498;5.392;2023-04-06T10:32:58;14.532;;;7.844;;
59986;SDS011;46181;51.498;5.392;2023-04-06T10:37:28;12.756;;;6.896001;;
59986;SDS011;46181;51.498;5.392;2023-04-06T10:41:58;12.848;;;7.440001;;
59986;SDS011;46181;51.498;5.392;2023-04-06T10:46:29;11.468;;;6.548;;
59986;SDS011;46181;51.498;5.392;2023-04-06T10:50:58;11.692;;;6.516001;;
59986;SDS011;46181;51.498;5.392;2023-04-06T10:55:29;9.191998;;;5.292001;;
59986;SDS011;46181;51.498;5.392;2023-04-06T10:59:58;9.388;;;5.436;;
59986;SDS011;46181;51.498;5.392;2023-04-06T11:04:28;9.380001;;;5.564;;
59986;SDS011;46181;51.498;5.392;2023-04-06T11:08:58;10.232;;;5.603999;;
59986;SDS011;46181;51.498;5.392;2023-04-06T11:13:28;9.96;;;5.984001;;
59986;SDS011;46181;51.498;5.392;2023-04-06T11:17:58;10.216;;;5.820001;;
59986;SDS011;46181;51.498;5.392;2023-04-06T11:22:28;11.584;;;6.380001;;
59986;SDS011;46181;51.498;5.392;2023-04-06T11:26:58;11.58;;;6.492;;
59986;SDS011;46181;51.498;5.392;2023-04-06T11:31:28;11.912;;;6.864001;;
59986;SDS011;46181;51.498;5.392;2023-04-06T11:36:00;12.14;;;6.784001;;
59986;SDS011;46181;51.498;5.392;2023-04-06T11:40:28;12.156;;;7.219999;;
59986;SDS011;46181;51.498;5.392;2023-04-06T11:44:58;12.992;;;6.952;;
59986;SDS011;46181;51.498;5.392;2023-04-06T11:49:30;13.656;;;7.684;;
59986;SDS011;46181;51.498;5.392;2023-04-06T11:53:58;12.66;;;7.092;;
59986;SDS011;46181;51.498;5.392;2023-04-06T11:58:29;11.988;;;6.924;;
59986;SDS011;46181;51.498;5.392;2023-04-06T12:02:58;11.928;;;7.052;;
59986;SDS011;46181;51.498;5.392;2023-04-06T12:07:28;11.22;;;6.844;;
59986;SDS011;46181;51.498;5.392;2023-04-06T12:11:58;13.764;;;7.276;;
59986;SDS011;46181;51.498;5.392;2023-04-06T12:16:28;12.04;;;6.940001;;
59986;SDS011;46181;51.498;5.392;2023-04-06T12:20:58;13.256;;;7.256001;;
59986;SDS011;46181;51.498;5.392;2023-04-06T12:25:28;12.592;;;7.119999;;
59986;SDS011;46181;51.498;5.392;2023-04-06T12:29:58;11.656;;;6.811999;;
59986;SDS011;46181;51.498;5.392;2023-04-06T12:34:28;13.088;;;6.679999;;
59986;SDS011;46181;51.498;5.392;2023-04-06T12:38:58;11.008;;;6.5;;
59986;SDS011;46181;51.498;5.392;2023-04-06T12:43:28;11.368;;;6.675999;;
59986;SDS011;46181;51.498;5.392;2023-04-06T12:47:58;9.823999;;;6.396001;;
59986;SDS011;46181;51.498;5.392;2023-04-06T12:52:28;11.216;;;6.72;;
59986;SDS011;46181;51.498;5.392;2023-04-06T12:56:58;10.856;;;6.592;;
59986;SDS011;46181;51.498;5.392;2023-04-06T13:01:28;10.796;;;6.16;;
59986;SDS011;46181;51.498;5.392;2023-04-06T13:05:58;0.716;;;0.356;;
59986;SDS011;46181;51.498;5.392;2023-04-06T13:10:28;0.736;;;0.468;;
59986;SDS011;46181;51.498;5.392;2023-04-06T13:14:58;0.364;;;0.364;;
59986;SDS011;46181;51.498;5.392;2023-04-06T13:19:28;0.104;;;0.104;;
59986;SDS011;46181;51.498;5.392;2023-04-06T13:23:58;0.112;;;0.112;;
59986;SDS011;46181;51.498;5.392;2023-04-06T13:28:28;0.204;;;0.204;;
59986;SDS011;46181;51.498;5.392;2023-04-06T13:32:58;0.192;;;0.192;;
59986;SDS011;46181;51.498;5.392;2023-04-06T13:37:28;2.88;;;0.74;;
59986;SDS011;46181;51.498;5.392;2023-04-06T13:41:58;0.296;;;0.296;;
59986;SDS011;46181;51.498;5.392;2023-04-06T13:46:28;0.1;;;0.1;;
59986;SDS011;46181;51.498;5.392;2023-04-06T13:50:58;0.48;;;0.432;;
59986;SDS011;46181;51.498;5.392;2023-04-06T13:55:28;0.4;;;0.4;;
59986;SDS011;46181;51.498;5.392;2023-04-06T13:59:58;0.452;;;0.452;;
59986;SDS011;46181;51.498;5.392;2023-04-06T14:04:28;0.908;;;0.5;;
59986;SDS011;46181;51.498;5.392;2023-04-06T14:08:58;0.404;;;0.228;;
59986;SDS011;46181;51.498;5.392;2023-04-06T14:13:28;0.1;;;0.1;;
59986;SDS011;46181;51.498;5.392;2023-04-06T14:17:58;0.352;;;0.312;;
59986;SDS011;46181;51.498;5.392;2023-04-06T14:22:28;0.808;;;0.476;;
59986;SDS011;46181;51.498;5.392;2023-04-06T14:26:59;0.184;;;0.184;;
59986;SDS011;46181;51.498;5.392;2023-04-06T14:31:28;1.976;;;1.024;;
59986;SDS011;46181;51.498;5.392;2023-04-06T14:35:58;0.5;;;0.5;;
59986;SDS011;46181;51.498;5.392;2023-04-06T14:40:28;0.488;;;0.488;;
59986;SDS011;46181;51.498;5.392;2023-04-06T14:44:58;0.316;;;0.296;;
59986;SDS011;46181;51.498;5.392;2023-04-06T14:49:28;0.2;;;0.2;;
59986;SDS011;46181;51.498;5.392;2023-04-06T14:53:58;0.116;;;0.116;;
59986;SDS011;46181;51.498;5.392;2023-04-06T14:58:28;0.492;;;0.492;;
59986;SDS011;46181;51.498;5.392;2023-04-06T15:02:58;0.656;;;0.656;;
59986;SDS011;46181;51.498;5.392;2023-04-06T15:07:28;0.528;;;0.528;;
59986;SDS011;46181;51.498;5.392;2023-04-06T15:11:58;0.484;;;0.404;;
59986;SDS011;46181;51.498;5.392;2023-04-06T15:16:28;0.308;;;0.308;;
59986;SDS011;46181;51.498;5.392;2023-04-06T15:20:58;0.528;;;0.444;;
59986;SDS011;46181;51.498;5.392;2023-04-06T15:25:28;0.764;;;0.436;;
59986;SDS011;46181;51.498;5.392;2023-04-06T15:29:58;0.152;;;0.152;;
59986;SDS011;46181;51.498;5.392;2023-04-06T15:34:29;0.724;;;0.612;;
59986;SDS011;46181;51.498;5.392;2023-04-06T15:38:58;0.68;;;0.368;;
59986;SDS011;46181;51.498;5.392;2023-04-06T15:43:28;0.4;;;0.4;;
59986;SDS011;46181;51.498;5.392;2023-04-06T15:47:58;0.464;;;0.464;;
59986;SDS011;46181;51.498;5.392;2023-04-06T15:52:28;0.292;;;0.292;;
59986;SDS011;46181;51.498;5.392;2023-04-06T15:56:58;0.648;;;0.516;;
59986;SDS011;46181;51.498;5.392;2023-04-06T16:01:28;0.536;;;0.536;;
59986;SDS011;46181;51.498;5.392;2023-04-06T16:05:58;0.152;;;0.152;;
59986;SDS011;46181;51.498;5.392;2023-04-06T16:10:28;1.032;;;0.96;;
59986;SDS011;46181;51.498;5.392;2023-04-06T16:14:58;0.492;;;0.492;;
59986;SDS011;46181;51.498;5.392;2023-04-06T16:19:28;0.248;;;0.248;;
59986;SDS011;46181;51.498;5.392;2023-04-06T16:23:58;0.408;;;0.408;;
59986;SDS011;46181;51.498;5.392;2023-04-06T16:28:28;0.46;;;0.38;;
59986;SDS011;46181;51.498;5.392;2023-04-06T16:32:58;0.196;;;0.196;;
59986;SDS011;46181;51.498;5.392;2023-04-06T16:37:28;0.1;;;0.1;;
59986;SDS011;46181;51.498;5.392;2023-04-06T16:41:58;0.528;;;0.528;;
59986;SDS011;46181;51.498;5.392;2023-04-06T16:46:32;0.1;;;0.1;;
59986;SDS011;46181;51.498;5.392;2023-04-06T16:51:00;0.336;;;0.336;;
59986;SDS011;46181;51.498;5.392;2023-04-06T16:55:28;0.2;;;0.2;;
59986;SDS011;46181;51.498;5.392;2023-04-06T16:59:58;0.112;;;0.112;;
59986;SDS011;46181;51.498;5.392;2023-04-06T17:04:28;0.352;;;0.352;;
59986;SDS011;46181;51.498;5.392;2023-04-06T17:08:58;0.1;;;0.1;;
59986;SDS011;46181;51.498;5.392;2023-04-06T17:13:28;0.292;;;0.292;;
59986;SDS011;46181;51.498;5.392;2023-04-06T17:17:58;0.596;;;0.572;;
59986;SDS011;46181;51.498;5.392;2023-04-06T17:22:28;0.116;;;0.116;;
59986;SDS011;46181;51.498;5.392;2023-04-06T17:26:58;0.42;;;0.42;;
59986;SDS011;46181;51.498;5.392;2023-04-06T17:31:28;0.148;;;0.148;;
59986;SDS011;46181;51.498;5.392;2023-04-06T17:35:58;0.252;;;0.22;;
59986;SDS011;46181;51.498;5.392;2023-04-06T17:40:28;0.144;;;0.144;;
59986;SDS011;46181;51.498;5.392;2023-04-06T17:44:59;0.568;;;0.552;;
59986;SDS011;46181;51.498;5.392;2023-04-06T17:49:28;0.1;;;0.1;;
59986;SDS011;46181;51.498;5.392;2023-04-06T17:53:58;0.1;;;0.1;;
59986;SDS011;46181;51.498;5.392;2023-04-06T17:58:28;0.56;;;0.476;;
59986;SDS011;46181;51.498;5.392;2023-04-06T18:02:58;0.7;;;0.368;;
59986;SDS011;46181;51.498;5.392;2023-04-06T18:07:28;0.616;;;0.616;;
59986;SDS011;46181;51.498;5.392;2023-04-06T18:11:58;0.548;;;0.344;;
59986;SDS011;46181;51.498;5.392;2023-04-06T18:16:28;2.024;;;1.64;;
59986;SDS011;46181;51.498;5.392;2023-04-06T18:21:01;0.136;;;0.136;;
59986;SDS011;46181;51.498;5.392;2023-04-06T18:25:28;0.1;;;0.1;;
59986;SDS011;46181;51.498;5.392;2023-04-06T18:29:58;1.036;;;0.796;;
59986;SDS011;46181;51.498;5.392;2023-04-06T18:34:28;0.696;;;0.2;;
59986;SDS011;46181;51.498;5.392;2023-04-06T18:38:58;0.212;;;0.212;;
59986;SDS011;46181;51.498;5.392;2023-04-06T18:43:28;0.264;;;0.264;;
59986;SDS011;46181;51.498;5.392;2023-04-06T18:47:58;0.428;;;0.412;;
59986;SDS011;46181;51.498;5.392;2023-04-06T18:52:28;1.368;;;0.424;;
59986;SDS011;46181;51.498;5.392;2023-04-06T18:56:58;0.288;;;0.288;;
59986;SDS011;46181;51.498;5.392;2023-04-06T19:01:29;0.2;;;0.2;;
59986;SDS011;46181;51.498;5.392;2023-04-06T19:05:58;0.4;;;0.4;;
59986;SDS011;46181;51.498;5.392;2023-04-06T19:10:28;0.456;;;0.26;;
59986;SDS011;46181;51.498;5.392;2023-04-06T19:14:58;0.312;;;0.276;;
59986;SDS011;46181;51.498;5.392;2023-04-06T19:19:28;0.284;;;0.284;;
59986;SDS011;46181;51.498;5.392;2023-04-06T19:23:58;0.364;;;0.364;;
59986;SDS011;46181;51.498;5.392;2023-04-06T19:28:28;0.264;;;0.264;;
59986;SDS011;46181;51.498;5.392;2023-04-06T19:32:58;0.412;;;0.412;;
59986;SDS011;46181;51.498;5.392;2023-04-06T19:37:28;0.444;;;0.324;;
59986;SDS011;46181;51.498;5.392;2023-04-06T19:41:58;0.376;;;0.376;;
59986;SDS011;46181;51.498;5.392;2023-04-06T19:46:28;0.268;;;0.244;;
59986;SDS011;46181;51.498;5.392;2023-04-06T19:50:58;0.1;;;0.1;;
59986;SDS011;46181;51.498;5.392;2023-04-06T19:55:28;0.22;;;0.112;;
59986;SDS011;46181;51.498;5.392;2023-04-06T19:59:58;0.156;;;0.156;;
59986;SDS011;46181;51.498;5.392;2023-04-06T20:04:28;0.804;;;0.804;;
59986;SDS011;46181;51.498;5.392;2023-04-06T20:08:58;0.108;;;0.108;;
59986;SDS011;46181;51.498;5.392;2023-04-06T20:13:28;0.344;;;0.308;;
59986;SDS011;46181;51.498;5.392;2023-04-06T20:17:58;0.1;;;0.1;;
59986;SDS011;46181;51.498;5.392;2023-04-06T20:22:28;0.348;;;0.348;;
59986;SDS011;46181;51.498;5.392;2023-04-06T20:26:58;0.1;;;0.1;;
59986;SDS011;46181;51.498;5.392;2023-04-06T20:31:28;0.1;;;0.1;;
59986;SDS011;46181;51.498;5.392;2023-04-06T20:35:59;0.184;;;0.184;;
59986;SDS011;46181;51.498;5.392;2023-04-06T20:40:28;0.924;;;0.38;;
59986;SDS011;46181;51.498;5.392;2023-04-06T20:44:58;0.2;;;0.2;;
59986;SDS011;46181;51.498;5.392;2023-04-06T20:49:28;0.256;;;0.256;;
59986;SDS011;46181;51.498;5.392;2023-04-06T20:53:58;0.24;;;0.24;;
59986;SDS011;46181;51.498;5.392;2023-04-06T20:58:28;0.528;;;0.436;;
59986;SDS011;46181;51.498;5.392;2023-04-06T21:02:58;0.472;;;0.22;;
59986;SDS011;46181;51.498;5.392;2023-04-06T21:07:28;0.124;;;0.124;;
59986;SDS011;46181;51.498;5.392;2023-04-06T21:11:58;0.124;;;0.108;;
59986;SDS011;46181;51.498;5.392;2023-04-06T21:16:28;0.3;;;0.3;;
59986;SDS011;46181;51.498;5.392;2023-04-06T21:20:58;0.124;;;0.124;;
59986;SDS011;46181;51.498;5.392;2023-04-06T21:25:28;0.336;;;0.336;;
59986;SDS011;46181;51.498;5.392;2023-04-06T21:29:58;0.296;;;0.296;;
59986;SDS011;46181;51.498;5.392;2023-04-06T21:34:28;0.164;;;0.14;;
59986;SDS011;46181;51.498;5.392;2023-04-06T21:38:58;0.32;;;0.32;;
59986;SDS011;46181;51.498;5.392;2023-04-06T21:43:28;0.4;;;0.4;;
59986;SDS011;46181;51.498;5.392;2023-04-06T21:47:58;0.128;;;0.128;;
59986;SDS011;46181;51.498;5.392;2023-04-06T21:52:28;0.308;;;0.3;;
59986;SDS011;46181;51.498;5.392;2023-04-06T21:56:58;0.368;;;0.368;;
59986;SDS011;46181;51.498;5.392;2023-04-06T22:01:28;0.1;;;0.1;;
59986;SDS011;46181;51.498;5.392;2023-04-06T22:06:01;0.376;;;0.376;;
59986;SDS011;46181;51.498;5.392;2023-04-06T22:10:28;0.716;;;0.308;;
59986;SDS011;46181;51.498;5.392;2023-04-06T22:14:58;0.16;;;0.16;;
59986;SDS011;46181;51.498;5.392;2023-04-06T22:19:28;0.152;;;0.152;;
59986;SDS011;46181;51.498;5.392;2023-04-06T22:23:58;0.112;;;0.112;;
59986;SDS011;46181;51.498;5.392;2023-04-06T22:28:28;0.5;;;0.264;;
59986;SDS011;46181;51.498;5.392;2023-04-06T22:32:58;0.172;;;0.172;;
59986;SDS011;46181;51.498;5.392;2023-04-06T22:37:28;0.432;;;0.432;;
59986;SDS011;46181;51.498;5.392;2023-04-06T22:41:58;0.196;;;0.196;;
59986;SDS011;46181;51.498;5.392;2023-04-06T22:50:58;0.316;;;0.304;;
59986;SDS011;46181;51.498;5.392;2023-04-06T22:55:28;0.332;;;0.2;;
59986;SDS011;46181;51.498;5.392;2023-04-06T22:59:58;0.328;;;0.328;;
59986;SDS011;46181;51.498;5.392;2023-04-06T23:04:28;0.22;;;0.22;;
59986;SDS011;46181;51.498;5.392;2023-04-06T23:08:58;0.1;;;0.1;;
59986;SDS011;46181;51.498;5.392;2023-04-06T23:13:28;0.46;;;0.46;;
59986;SDS011;46181;51.498;5.392;2023-04-06T23:17:58;0.1;;;0.1;;
59986;SDS011;46181;51.498;5.392;2023-04-06T23:22:28;0.36;;;0.3;;
59986;SDS011;46181;51.498;5.392;2023-04-06T23:26:58;0.876;;;0.564;;
59986;SDS011;46181;51.498;5.392;2023-04-06T23:31:28;0.36;;;0.36;;
59986;SDS011;46181;51.498;5.392;2023-04-06T23:35:58;0.3;;;0.3;;
59986;SDS011;46181;51.498;5.392;2023-04-06T23:40:28;0.576;;;0.552;;
59986;SDS011;46181;51.498;5.392;2023-04-06T23:44:58;0.2;;;0.2;;
59986;SDS011;46181;51.498;5.392;2023-04-06T23:49:28;0.404;;;0.404;;
59986;SDS011;46181;51.498;5.392;2023-04-06T23:53:58;0.188;;;0.176;;
59986;SDS011;46181;51.498;5.392;2023-04-06T23:58:28;0.28;;;0.28;;
